This is the latest recevied weather packets stored in our database for station/object LRBS. If no packets are shown the sender has not sent any weather packets the latest 10 day(s).
| Time | Temp. | Humidity | Pressure | Rain* | Wind** | Luminosity | Snow |
|---|---|---|---|---|---|---|---|
| 1777641495 | 12.78° C | 36% | 1024 hPa | - | - | - | - |
| 1777640594 | 12.78° C | 36% | 1024 hPa | - | - | - | - |
| 1777639694 | 12.78° C | 36% | 1025 hPa | - | - | - | - |
| 1777638794 | 12.78° C | 36% | 1025 hPa | - | - | - | - |
| 1777637909 | 12.22° C | 35% | 1025 hPa | - | - | - | - |
| 1777636995 | 12.22° C | 35% | 1025 hPa | - | - | - | - |
| 1777636094 | 11.11° C | 38% | 1025 hPa | - | - | - | - |
| 1777635194 | 11.11° C | 38% | 1025 hPa | - | - | - | - |
| 1777634294 | 12.22° C | 38% | 1025 hPa | - | - | - | - |
| 1777633395 | 12.22° C | 38% | 1025 hPa | - | - | - | - |
| 1777632494 | 12.78° C | 36% | 1025 hPa | - | - | - | - |
| 1777631594 | 12.78° C | 36% | 1025 hPa | - | - | - | - |
| 1777630694 | 12.22° C | 38% | 1025 hPa | - | - | - | - |
| 1777629794 | 12.22° C | 38% | 1025 hPa | - | - | - | - |
| 1777628894 | 12.22° C | 41% | 1025 hPa | - | - | - | - |
| 1777627994 | 12.22° C | 41% | 1025 hPa | - | - | - | - |
| 1777627094 | 12.22° C | 41% | 1026 hPa | - | - | - | - |
| 1777626194 | 12.22° C | 41% | 1026 hPa | - | - | - | - |
| 1777625294 | 11.11° C | 44% | 1025 hPa | - | - | - | - |
| 1777624395 | 11.11° C | 44% | 1025 hPa | - | - | - | - |
| 1777623512 | 11.11° C | 47% | 1026 hPa | - | - | - | - |
| 1777622594 | 11.11° C | 47% | 1026 hPa | - | - | - | - |
| 1777621694 | 10° C | 50% | 1025 hPa | - | - | - | - |
| 1777620794 | 10° C | 50% | 1025 hPa | - | - | - | - |
| 1777619894 | 10° C | 54% | 1025 hPa | - | - | - | - |
* Rain since midnight (hover to see other rain measurements)
** Current wind speed in m/s (hover to see current wind gust speed)